Terminal Aerodrome Forecast
Issued by NWS

Home | Current Version | Previous Version | Text Only | Print | Product List | Glossary On
Versions: 1 2 3 4 5 6 7 8 9 10 11 12
000
FTUS42 TJSJ 242331
TAFKPK
TAF
TKPK 242331Z 2500/2524 VRB03KT P6SM FEW018
     FM251300 11010KT P6SM FEW020
      AMD NOT SKED 2502/2511=

USA.gov is the U.S. government's official web portal to all federal, state and local government web resources and services.